Time;durP1;ratioP1;P1;durP2;ratioP2;P2;SDS_P1;SDS_P2;PMS_P1;PMS_P2;Temp;Humidity;BMP_temperature;BMP_pressure;BME280_temperature;BME280_humidity;BME280_pressure;Samples;Min_cycle;Max_cycle;Signal;HPM_P1;HPM_P2
2021/03/22 00:00:21;;;;;;;13.02;6.03;;;2.90;99.90;;;;;;5067254;28;20045;-58
2021/03/22 00:02:47;;;;;;;14.05;6.22;;;2.90;99.90;;;;;;5066633;28;20048;-58
2021/03/22 00:05:15;;;;;;;17.92;6.35;;;3.00;99.90;;;;;;5068527;28;20055;-59
2021/03/22 00:07:42;;;;;;;14.27;6.07;;;3.00;99.90;;;;;;5069277;28;20136;-59
2021/03/22 00:10:09;;;;;;;16.23;6.10;;;3.00;99.90;;;;;;5068545;28;20049;-59
2021/03/22 00:12:36;;;;;;;15.88;6.68;;;3.00;99.90;;;;;;5042736;28;20037;-59
2021/03/22 00:15:05;;;;;;;16.05;5.57;;;3.10;99.90;;;;;;5033797;28;20044;-58
2021/03/22 00:17:32;;;;;;;15.15;6.68;;;3.10;99.90;;;;;;5051643;28;20044;-59
2021/03/22 00:19:59;;;;;;;17.77;6.38;;;3.10;99.90;;;;;;5068435;28;20047;-58
2021/03/22 00:22:25;;;;;;;13.73;6.13;;;3.20;99.90;;;;;;5067965;28;20123;-59
2021/03/22 00:24:51;;;;;;;13.55;5.95;;;3.20;99.90;;;;;;5069738;28;20045;-60
2021/03/22 00:27:18;;;;;;;13.48;4.97;;;3.10;99.90;;;;;;5054153;28;20052;-58
2021/03/22 00:29:44;;;;;;;13.65;5.97;;;3.10;99.90;;;;;;5075968;28;20046;-57
2021/03/22 00:32:11;;;;;;;16.40;6.75;;;3.10;99.90;;;;;;5048564;28;20067;-57
2021/03/22 00:34:37;;;;;;;14.15;5.70;;;3.10;99.90;;;;;;5055061;28;20119;-58
2021/03/22 00:37:04;;;;;;;15.13;5.50;;;3.00;99.90;;;;;;5070440;28;20051;-58
2021/03/22 00:39:31;;;;;;;15.80;6.47;;;3.00;99.90;;;;;;5068806;28;20086;-61
2021/03/22 00:41:57;;;;;;;14.38;6.45;;;2.90;99.90;;;;;;5071106;28;20044;-57
2021/03/22 00:44:24;;;;;;;13.57;6.53;;;3.00;99.90;;;;;;5072474;28;20036;-58
2021/03/22 00:46:51;;;;;;;17.88;7.07;;;3.00;99.90;;;;;;5069818;28;20047;-58
2021/03/22 00:49:17;;;;;;;15.77;6.95;;;3.00;99.90;;;;;;5065051;28;20045;-59
2021/03/22 00:51:44;;;;;;;16.45;6.10;;;3.00;99.90;;;;;;5061015;28;20041;-57
2021/03/22 00:54:11;;;;;;;16.75;6.78;;;3.00;99.90;;;;;;5073313;28;20566;-58
2021/03/22 00:56:38;;;;;;;19.08;7.28;;;3.00;99.90;;;;;;5070382;28;20055;-58
2021/03/22 00:59:05;;;;;;;15.73;6.20;;;3.00;99.90;;;;;;5072802;28;20033;-59
2021/03/22 01:01:32;;;;;;;16.15;6.50;;;3.00;99.90;;;;;;5053685;28;20056;-58
2021/03/22 01:03:59;;;;;;;13.55;6.18;;;3.10;99.90;;;;;;5073449;28;20130;-59
2021/03/22 01:06:26;;;;;;;16.17;6.68;;;3.00;99.90;;;;;;5048351;28;20041;-59
2021/03/22 01:08:52;;;;;;;13.60;6.00;;;3.00;99.90;;;;;;5073460;28;20036;-57
2021/03/22 01:11:21;;;;;;;13.30;6.70;;;3.00;99.90;;;;;;5053826;28;20048;-57
2021/03/22 01:13:53;;;;;;;14.23;7.03;;;3.10;99.90;;;;;;5072178;28;20040;-58
2021/03/22 01:16:32;;;;;;;15.70;6.50;;;3.10;99.90;;;;;;5066063;28;20040;-58
2021/03/22 01:19:00;;;;;;;16.45;7.30;;;3.10;99.90;;;;;;5073245;28;20127;-58
2021/03/22 01:21:49;;;;;;;12.85;5.80;;;3.10;99.90;;;;;;5072098;28;20056;-58
2021/03/22 01:24:20;;;;;;;19.45;6.45;;;3.20;99.90;;;;;;5052645;28;20491;-59
2021/03/22 01:26:49;;;;;;;14.52;6.40;;;3.10;99.90;;;;;;5061915;28;20062;-59
2021/03/22 01:29:22;;;;;;;17.20;6.50;;;3.20;99.90;;;;;;5070407;28;20051;-60
2021/03/22 01:31:48;;;;;;;16.77;6.38;;;3.10;99.90;;;;;;5048252;28;20041;-58
2021/03/22 01:34:16;;;;;;;14.38;6.65;;;3.20;99.90;;;;;;5049281;28;20122;-59
2021/03/22 01:36:42;;;;;;;17.75;7.38;;;3.20;99.90;;;;;;5042542;28;20439;-59
2021/03/22 01:39:15;;;;;;;17.80;6.45;;;3.20;99.90;;;;;;5046994;28;20087;-58
2021/03/22 01:41:59;;;;;;;12.55;5.53;;;3.20;99.90;;;;;;5050942;28;20136;-59
2021/03/22 01:44:34;;;;;;;;;;;3.20;99.90;;;;;;5066751;28;20048;-58
2021/03/22 01:47:06;;;;;;;14.82;6.22;;;3.20;99.90;;;;;;5069866;28;20283;-58
2021/03/22 01:49:44;;;;;;;16.97;6.00;;;3.20;99.90;;;;;;5070736;28;20051;-59
2021/03/22 01:52:11;;;;;;;19.98;6.78;;;3.20;99.90;;;;;;5052568;28;20055;-60
2021/03/22 01:54:38;;;;;;;20.02;7.45;;;3.20;99.90;;;;;;5052455;28;20491;-58
2021/03/22 01:57:27;;;;;;;15.73;6.55;;;3.20;99.90;;;;;;5055005;28;20052;-58
2021/03/22 02:00:04;;;;;;;12.95;5.70;;;3.30;99.90;;;;;;5033654;28;20822;-58
2021/03/22 02:02:33;;;;;;;16.27;6.75;;;3.30;99.90;;;;;;5069936;28;20040;-58
2021/03/22 02:05:00;;;;;;;20.50;7.35;;;3.30;99.90;;;;;;5068809;28;20040;-58
2021/03/22 02:07:29;;;;;;;16.88;6.47;;;3.30;99.90;;;;;;5048332;28;20045;-58
2021/03/22 02:09:57;;;;;;;18.30;7.28;;;3.20;99.90;;;;;;5048522;28;20064;-59
2021/03/22 02:12:24;;;;;;;18.35;6.40;;;3.30;99.90;;;;;;5070702;28;20044;-59
2021/03/22 02:14:52;;;;;;;15.05;6.20;;;3.30;99.90;;;;;;5050226;28;20047;-58
2021/03/22 02:17:48;;;;;;;17.55;6.88;;;3.30;99.90;;;;;;5067843;28;20044;-58
2021/03/22 02:20:48;;;;;;;13.18;6.10;;;3.30;99.90;;;;;;5070303;28;20127;-57
2021/03/22 02:23:41;;;;;;;15.68;6.45;;;3.30;99.90;;;;;;5073312;28;20478;-59
2021/03/22 02:26:34;;;;;;;20.50;7.05;;;3.30;99.90;;;;;;5061905;28;20061;-57
2021/03/22 02:29:22;;;;;;;16.55;6.05;;;3.30;99.90;;;;;;5069899;28;20044;-58
2021/03/22 02:32:20;;;;;;;15.45;6.07;;;3.30;99.90;;;;;;5045713;28;20095;-60
2021/03/22 02:34:49;;;;;;;17.40;6.18;;;3.40;99.90;;;;;;5046161;28;20060;-58
2021/03/22 02:37:31;;;;;;;13.40;6.50;;;3.30;99.90;;;;;;5070933;28;20475;-57
2021/03/22 02:40:02;;;;;;;15.82;6.72;;;3.40;99.90;;;;;;5059720;28;20051;-58
2021/03/22 02:42:31;;;;;;;14.20;5.60;;;3.40;99.90;;;;;;5066598;28;20063;-59
2021/03/22 02:44:57;;;;;;;14.57;5.80;;;3.40;99.90;;;;;;5068314;28;20098;-59
2021/03/22 02:47:24;;;;;;;14.00;5.35;;;3.50;99.90;;;;;;5051014;28;20419;-59
2021/03/22 02:49:52;;;;;;;15.18;6.15;;;3.40;99.90;;;;;;5069747;28;20040;-57
2021/03/22 02:52:41;;;;;;;15.70;6.75;;;3.40;99.90;;;;;;5051762;28;20044;-58
2021/03/22 02:55:11;;;;;;;16.90;6.45;;;3.40;99.90;;;;;;5068379;28;20125;-58
2021/03/22 02:57:47;;;;;;;14.98;6.05;;;3.40;99.90;;;;;;5049179;28;20047;-58
2021/03/22 03:00:24;;;;;;;14.43;5.97;;;3.40;99.90;;;;;;5070265;28;20044;-59
2021/03/22 03:02:55;;;;;;;13.45;5.85;;;3.50;99.90;;;;;;5035185;28;20098;-58
2021/03/22 03:05:25;;;;;;;15.45;6.30;;;3.50;99.90;;;;;;5067321;28;20039;-58
2021/03/22 03:07:54;;;;;;;12.77;5.35;;;3.50;99.90;;;;;;5069404;28;20045;-58
2021/03/22 03:10:22;;;;;;;14.05;5.50;;;3.50;99.90;;;;;;5071442;28;20044;-58
2021/03/22 03:12:49;;;;;;;12.27;5.57;;;3.50;99.90;;;;;;5070190;28;20044;-58
2021/03/22 03:15:17;;;;;;;16.70;6.38;;;3.50;99.90;;;;;;5067172;28;20376;-59
2021/03/22 03:17:47;;;;;;;16.98;6.40;;;3.60;99.90;;;;;;5049978;28;20051;-58
2021/03/22 03:20:18;;;;;;;12.38;6.25;;;3.60;99.90;;;;;;5067601;28;20140;-59
2021/03/22 03:22:45;;;;;;;16.27;6.30;;;3.60;99.90;;;;;;5068411;28;20049;-59
2021/03/22 03:25:13;;;;;;;13.60;6.05;;;3.60;99.90;;;;;;5051684;28;20500;-58
2021/03/22 03:27:40;;;;;;;13.32;6.10;;;3.60;99.90;;;;;;5051153;28;20049;-58
2021/03/22 03:30:09;;;;;;;14.13;6.78;;;3.50;99.90;;;;;;5050860;28;20487;-59
2021/03/22 03:32:36;;;;;;;15.55;6.15;;;3.50;99.90;;;;;;5068220;28;20048;-60
2021/03/22 03:35:06;;;;;;;17.08;6.07;;;3.50;99.90;;;;;;5049559;28;20047;-59
2021/03/22 03:37:32;;;;;;;13.80;6.35;;;3.50;99.90;;;;;;5069586;28;20094;-58
2021/03/22 03:39:59;;;;;;;14.13;6.28;;;3.50;99.90;;;;;;5069849;28;20059;-58
2021/03/22 03:42:26;;;;;;;14.50;5.82;;;3.50;99.90;;;;;;5068633;28;20032;-58
2021/03/22 03:44:52;;;;;;;14.13;6.10;;;3.60;99.90;;;;;;5048220;28;20416;-58
2021/03/22 03:47:19;;;;;;;17.27;5.95;;;3.60;99.90;;;;;;5069328;28;20032;-59
2021/03/22 03:49:45;;;;;;;14.05;6.05;;;3.50;99.90;;;;;;5048804;28;20042;-61
2021/03/22 03:52:12;;;;;;;12.93;5.97;;;3.50;99.90;;;;;;5045430;28;20037;-58
2021/03/22 03:54:38;;;;;;;14.25;5.90;;;3.50;99.90;;;;;;5068965;28;20039;-58
2021/03/22 03:57:05;;;;;;;17.95;6.00;;;3.50;99.90;;;;;;5049937;28;20061;-60
2021/03/22 03:59:32;;;;;;;16.10;6.03;;;3.50;99.90;;;;;;5071373;28;20094;-57
2021/03/22 04:01:58;;;;;;;12.50;5.63;;;3.50;99.90;;;;;;5049848;28;20040;-60
2021/03/22 04:04:25;;;;;;;16.38;6.38;;;3.50;99.90;;;;;;5051546;28;20051;-59
2021/03/22 04:06:52;;;;;;;16.17;6.47;;;3.50;99.90;;;;;;5042905;28;20067;-60
2021/03/22 04:09:20;;;;;;;13.00;5.80;;;3.50;99.90;;;;;;5048759;28;20542;-62
2021/03/22 04:11:49;;;;;;;13.43;5.78;;;3.50;99.90;;;;;;5051782;28;20041;-60
2021/03/22 04:14:22;;;;;;;13.30;5.50;;;3.50;99.90;;;;;;5053089;28;20075;-58
2021/03/22 04:16:50;;;;;;;13.50;5.65;;;3.50;99.90;;;;;;5073229;28;20046;-60
2021/03/22 04:19:18;;;;;;;16.42;6.35;;;3.50;99.90;;;;;;5070810;28;20040;-59
2021/03/22 04:21:45;;;;;;;13.85;6.03;;;3.60;99.90;;;;;;5051663;28;20063;-59
2021/03/22 04:24:13;;;;;;;12.38;6.30;;;3.60;99.90;;;;;;5071286;28;20056;-59
2021/03/22 04:26:40;;;;;;;15.48;5.90;;;3.60;99.90;;;;;;5071571;28;20045;-59
2021/03/22 04:29:07;;;;;;;15.45;5.68;;;3.60;99.90;;;;;;5072824;28;20063;-59
2021/03/22 04:31:34;;;;;;;14.98;6.57;;;3.60;99.90;;;;;;5070049;28;20499;-61
2021/03/22 04:34:02;;;;;;;15.75;7.00;;;3.60;99.90;;;;;;5057425;28;20055;-59
2021/03/22 04:36:33;;;;;;;17.63;6.85;;;3.60;99.90;;;;;;5060879;28;20561;-60
2021/03/22 04:38:59;;;;;;;21.00;7.80;;;3.60;99.90;;;;;;5050075;28;20098;-61
2021/03/22 04:41:26;;;;;;;14.45;7.18;;;3.60;99.90;;;;;;5070599;28;20033;-59
2021/03/22 04:43:53;;;;;;;14.10;6.45;;;3.60;99.90;;;;;;5072103;28;20188;-59
2021/03/22 04:46:20;;;;;;;18.50;8.02;;;3.70;99.90;;;;;;5053032;28;20064;-59
2021/03/22 04:48:58;;;;;;;17.55;6.55;;;3.70;99.90;;;;;;5064552;28;20054;-60
2021/03/22 04:51:25;;;;;;;16.23;6.30;;;3.70;99.90;;;;;;5053247;28;20040;-61
2021/03/22 04:53:52;;;;;;;16.85;6.82;;;3.70;99.90;;;;;;5072713;28;20037;-61
2021/03/22 04:56:20;;;;;;;19.67;7.80;;;3.70;99.90;;;;;;5073441;28;20040;-58
2021/03/22 04:58:47;;;;;;;16.27;6.65;;;3.70;99.90;;;;;;5071489;28;20040;-59
2021/03/22 05:01:14;;;;;;;14.05;6.57;;;3.70;99.90;;;;;;5052695;28;20068;-59
2021/03/22 05:03:42;;;;;;;13.50;6.38;;;3.70;99.90;;;;;;5053360;28;20131;-62
2021/03/22 05:06:09;;;;;;;17.77;6.85;;;3.70;99.90;;;;;;5069999;28;20390;-59
2021/03/22 05:08:36;;;;;;;15.40;6.15;;;3.70;99.90;;;;;;5070993;28;20048;-59
2021/03/22 05:11:02;;;;;;;14.50;5.93;;;3.70;99.90;;;;;;5035904;28;20040;-59
2021/03/22 05:13:29;;;;;;;16.15;6.63;;;3.70;99.90;;;;;;5053910;28;20094;-60
2021/03/22 05:15:57;;;;;;;15.52;5.75;;;3.80;99.90;;;;;;5053600;28;20040;-60
2021/03/22 05:18:25;;;;;;;16.65;6.10;;;3.70;99.90;;;;;;5055984;28;20033;-61
2021/03/22 05:20:54;;;;;;;14.88;6.72;;;3.70;99.90;;;;;;5071776;28;20036;-60
2021/03/22 05:23:25;;;;;;;16.23;6.10;;;3.70;99.90;;;;;;5036829;28;20063;-60
2021/03/22 05:25:53;;;;;;;15.00;6.05;;;3.70;99.90;;;;;;5067158;28;20041;-59
2021/03/22 05:28:23;;;;;;;17.65;6.45;;;3.80;99.90;;;;;;5052892;28;20504;-60
2021/03/22 05:30:50;;;;;;;13.93;7.03;;;3.80;99.90;;;;;;5071105;28;20036;-57
2021/03/22 05:33:18;;;;;;;17.52;7.28;;;3.80;99.90;;;;;;5066055;28;20052;-60
2021/03/22 05:35:49;;;;;;;17.45;7.10;;;3.80;99.90;;;;;;5068025;28;20414;-63
2021/03/22 05:38:16;;;;;;;16.05;6.53;;;3.90;99.90;;;;;;5071342;28;20049;-60
2021/03/22 05:40:45;;;;;;;15.65;7.05;;;3.90;99.90;;;;;;5053474;28;20048;-59
2021/03/22 05:43:32;;;;;;;15.95;5.82;;;3.90;99.90;;;;;;5073170;28;20052;-57
2021/03/22 05:46:39;;;;;;;14.80;5.85;;;3.90;99.90;;;;;;5071841;28;20045;-58
2021/03/22 05:49:33;;;;;;;12.30;5.63;;;4.00;99.90;;;;;;4978435;28;20161;-58
2021/03/22 05:52:07;;;;;;;11.60;5.47;;;4.00;99.90;;;;;;4969461;28;20076;-62
2021/03/22 05:54:59;;;;;;;16.45;5.53;;;4.00;99.90;;;;;;4980895;28;20039;-59
2021/03/22 05:57:43;;;;;;;11.93;5.45;;;4.10;99.90;;;;;;4975164;28;20039;-58
2021/03/22 06:00:31;;;;;;;15.95;6.30;;;4.20;99.60;;;;;;4981800;28;20051;-63
2021/03/22 06:03:04;;;;;;;12.57;5.63;;;4.30;99.30;;;;;;4961817;28;20696;-59
2021/03/22 06:05:45;;;;;;;16.35;6.68;;;4.30;98.80;;;;;;4976756;28;20042;-60
2021/03/22 06:08:30;;;;;;;14.05;5.53;;;4.30;98.50;;;;;;4975744;28;20053;-60
2021/03/22 06:11:01;;;;;;;15.77;5.78;;;4.30;98.30;;;;;;4980747;28;20073;-59
2021/03/22 06:13:34;;;;;;;16.08;5.90;;;4.30;98.20;;;;;;4979249;28;20049;-58
2021/03/22 06:16:04;;;;;;;;;;;4.40;97.80;;;;;;4987224;28;20053;-58
2021/03/22 06:18:35;;;;;;;11.75;5.43;;;4.40;97.70;;;;;;4977720;28;19921;-58
2021/03/22 06:21:12;;;;;;;17.98;7.22;;;4.40;97.60;;;;;;4978822;28;20050;-59
2021/03/22 06:23:44;;;;;;;19.08;7.63;;;4.40;97.50;;;;;;4990985;28;20046;-59
2021/03/22 06:26:39;;;;;;;16.00;6.80;;;4.40;97.60;;;;;;5050831;28;20553;-57
2021/03/22 06:29:12;;;;;;;12.82;5.90;;;4.50;98.00;;;;;;5069471;28;20074;-59
2021/03/22 06:31:41;;;;;;;12.27;6.03;;;4.60;97.10;;;;;;5069445;28;20375;-59
2021/03/22 06:34:13;;;;;;;13.77;5.85;;;4.70;96.90;;;;;;5068500;28;20496;-60
2021/03/22 06:36:40;;;;;;;12.45;5.60;;;4.80;96.70;;;;;;5058127;28;20025;-59
2021/03/22 06:39:10;;;;;;;12.10;5.38;;;4.90;96.50;;;;;;5051490;28;20040;-59
2021/03/22 06:41:47;;;;;;;15.13;6.05;;;4.90;96.00;;;;;;5068834;28;20036;-60
2021/03/22 06:44:33;;;;;;;11.98;5.15;;;5.00;95.90;;;;;;5061606;28;20060;-59
2021/03/22 06:47:17;;;;;;;13.93;5.55;;;5.10;95.60;;;;;;5051489;28;20110;-59
2021/03/22 06:49:53;;;;;;;12.60;4.82;;;5.10;94.50;;;;;;5056689;28;20403;-59
2021/03/22 06:52:22;;;;;;;12.88;4.50;;;5.20;93.60;;;;;;5050854;28;20048;-60
2021/03/22 06:54:55;;;;;;;11.05;5.20;;;5.20;93.70;;;;;;5071623;28;20119;-59
2021/03/22 06:57:30;;;;;;;11.87;5.23;;;5.20;93.40;;;;;;5071667;28;20045;-59
2021/03/22 07:00:18;;;;;;;11.55;5.25;;;5.20;93.70;;;;;;5069449;28;20036;-58
2021/03/22 07:02:59;;;;;;;14.55;5.68;;;5.30;93.20;;;;;;5064660;28;20139;-59
2021/03/22 07:05:29;;;;;;;13.65;5.50;;;5.40;92.90;;;;;;5071460;28;20040;-60
2021/03/22 07:08:01;;;;;;;12.20;5.07;;;5.40;92.30;;;;;;5067597;28;20829;-58
2021/03/22 07:10:32;;;;;;;11.02;4.38;;;5.50;91.90;;;;;;5068644;28;20041;-59
2021/03/22 07:13:13;;;;;;;11.80;5.10;;;5.50;91.80;;;;;;5074488;28;20052;-60
2021/03/22 07:15:44;;;;;;;12.10;5.00;;;5.60;92.00;;;;;;5060108;28;20526;-60
2021/03/22 07:18:40;;;;;;;10.15;4.82;;;5.60;91.10;;;;;;5067649;28;20102;-59
2021/03/22 07:21:12;;;;;;;12.10;4.55;;;5.80;90.20;;;;;;5027631;28;20080;-58
2021/03/22 07:23:44;;;;;;;19.13;5.07;;;5.80;89.80;;;;;;5069284;28;20491;-60
2021/03/22 07:26:35;;;;;;;13.73;5.07;;;5.90;88.80;;;;;;5069369;28;20060;-58
2021/03/22 07:29:31;;;;;;;9.65;4.38;;;5.90;88.70;;;;;;5066110;28;20041;-59
2021/03/22 07:32:12;;;;;;;11.88;5.07;;;6.00;88.60;;;;;;5042102;28;20052;-59
2021/03/22 07:35:08;;;;;;;12.98;4.70;;;6.10;87.80;;;;;;5056390;28;20114;-59
2021/03/22 07:37:57;;;;;;;10.50;4.75;;;6.10;87.30;;;;;;5065112;28;20149;-59
2021/03/22 07:40:42;;;;;;;13.40;5.25;;;6.20;86.50;;;;;;5073170;28;20369;-59
2021/03/22 07:43:17;;;;;;;11.52;5.03;;;6.20;86.00;;;;;;5057889;28;20047;-59
2021/03/22 07:46:06;;;;;;;11.32;4.68;;;6.20;84.20;;;;;;5050383;28;20920;-59
2021/03/22 07:48:51;;;;;;;11.63;4.55;;;6.10;85.60;;;;;;5065146;28;20037;-59
2021/03/22 07:51:28;;;;;;;12.45;4.65;;;6.20;85.00;;;;;;5068284;28;20113;-60
2021/03/22 07:54:15;;;;;;;9.27;4.40;;;6.20;85.00;;;;;;5068459;28;20406;-59
2021/03/22 07:56:41;;;;;;;11.35;4.25;;;6.10;84.00;;;;;;5065618;28;20032;-60
2021/03/22 07:59:23;;;;;;;12.20;5.07;;;6.00;84.10;;;;;;5067530;28;20033;-58
2021/03/22 08:02:20;;;;;;;12.18;5.32;;;6.00;85.00;;;;;;5065901;28;20094;-59
2021/03/22 08:04:55;;;;;;;11.43;4.93;;;6.00;84.80;;;;;;5053202;28;20625;-59
2021/03/22 08:07:53;;;;;;;14.35;5.72;;;6.00;85.00;;;;;;5066186;28;20040;-59
2021/03/22 08:10:42;;;;;;;12.05;4.88;;;6.00;84.90;;;;;;5039591;28;20076;-59
2021/03/22 08:13:34;;;;;;;12.05;4.97;;;6.00;84.50;;;;;;5068732;28;20036;-58
2021/03/22 08:16:06;;;;;;;11.23;5.07;;;6.00;84.20;;;;;;4978487;28;20062;-59
2021/03/22 08:18:42;;;;;;;13.95;4.75;;;6.00;84.30;;;;;;4985591;28;20050;-61
2021/03/22 08:21:41;;;;;;;8.32;3.63;;;6.00;83.20;;;;;;4992949;28;20120;-59
2021/03/22 08:24:32;;;;;;;8.98;3.97;;;6.00;82.40;;;;;;4975984;28;20082;-58
2021/03/22 08:27:05;;;;;;;9.30;3.50;;;6.00;80.40;;;;;;4972586;28;20042;-59
2021/03/22 08:29:35;;;;;;;10.40;4.00;;;6.00;79.30;;;;;;4989426;28;20057;-59
2021/03/22 08:32:50;;;;;;;14.35;3.75;;;6.00;79.90;;;;;;4986412;28;20042;-59
2021/03/22 08:35:21;;;;;;;7.35;3.03;;;5.90;79.30;;;;;;4982319;28;20210;-58
2021/03/22 08:38:01;;;;;;;7.30;3.05;;;5.90;78.60;;;;;;4987651;28;20050;-60
2021/03/22 08:40:33;;;;;;;7.07;3.25;;;5.90;77.70;;;;;;4988271;28;20050;-60
2021/03/22 08:43:05;;;;;;;8.20;2.85;;;6.00;77.20;;;;;;4996636;28;20599;-59
2021/03/22 08:45:37;;;;;;;7.50;3.30;;;5.90;76.40;;;;;;4987152;28;20066;-59
2021/03/22 08:48:09;;;;;;;5.20;2.30;;;5.90;76.00;;;;;;4983969;28;20064;-60
2021/03/22 08:50:38;;;;;;;7.72;2.92;;;5.90;76.00;;;;;;4956250;28;20051;-60
2021/03/22 08:53:12;;;;;;;6.47;2.50;;;5.90;74.80;;;;;;5013515;28;20047;-60
2021/03/22 08:55:41;;;;;;;7.03;2.75;;;5.90;74.50;;;;;;5072023;28;20514;-59
2021/03/22 08:58:26;;;;;;;8.35;2.92;;;6.00;74.20;;;;;;5051688;28;20040;-59
2021/03/22 09:01:07;;;;;;;5.82;2.53;;;5.90;74.00;;;;;;5076951;28;20130;-59
2021/03/22 09:03:40;;;;;;;7.88;2.78;;;6.00;73.90;;;;;;5055945;28;20139;-59
2021/03/22 09:06:09;;;;;;;7.30;2.50;;;6.00;74.00;;;;;;5045486;28;20439;-59
2021/03/22 09:09:00;;;;;;;7.63;3.08;;;6.00;73.50;;;;;;5048220;28;20048;-59
2021/03/22 09:11:34;;;;;;;5.30;2.60;;;5.90;73.00;;;;;;5069314;28;20040;-59
2021/03/22 09:14:06;;;;;;;6.82;2.45;;;5.90;73.60;;;;;;5070855;28;20045;-58
2021/03/22 09:16:39;;;;;;;7.40;3.37;;;5.90;73.00;;;;;;5076208;28;20051;-58
2021/03/22 09:19:13;;;;;;;10.57;3.20;;;5.90;72.90;;;;;;5054078;28;20102;-59
2021/03/22 09:21:41;;;;;;;6.47;2.88;;;5.90;73.30;;;;;;5050340;28;20082;-60
2021/03/22 09:27:18;;;;;;;6.05;2.45;;;5.90;72.70;;;;;;5067654;28;20044;-60
2021/03/22 09:29:46;;;;;;;6.93;2.67;;;5.90;73.30;;;;;;5048716;28;20407;-60
2021/03/22 09:32:25;;;;;;;10.75;3.00;;;5.80;73.60;;;;;;5074118;28;20070;-58
2021/03/22 09:35:00;;;;;;;6.80;2.67;;;5.80;74.00;;;;;;5069285;28;20033;-59
2021/03/22 09:38:02;;;;;;;8.23;2.17;;;5.80;75.00;;;;;;5059950;28;20128;-61
2021/03/22 09:40:30;;;;;;;6.72;2.28;;;5.80;75.60;;;;;;4975008;28;20450;-59
2021/03/22 09:43:19;;;;;;;7.40;2.17;;;5.80;76.00;;;;;;4969909;28;20102;-59
2021/03/22 09:45:53;;;;;;;5.18;1.95;;;5.90;76.50;;;;;;4956744;28;20062;-60
2021/03/22 09:48:52;;;;;;;6.03;1.73;;;5.90;76.30;;;;;;4964962;28;20042;-61
2021/03/22 09:51:30;;;;;;;5.47;1.75;;;5.90;75.60;;;;;;4953106;28;20497;-61
2021/03/22 09:54:02;;;;;;;6.72;2.38;;;5.90;75.80;;;;;;4951290;28;20089;-61
2021/03/22 09:56:40;;;;;;;8.30;2.60;;;5.90;76.30;;;;;;4966933;28;20473;-59
2021/03/22 09:59:38;;;;;;;7.95;2.55;;;6.00;76.60;;;;;;4952182;28;20058;-59
2021/03/22 10:02:29;;;;;;;7.22;2.97;;;6.00;76.80;;;;;;4962884;28;20146;-61
2021/03/22 10:05:17;;;;;;;6.97;2.47;;;6.00;77.00;;;;;;4961688;28;20503;-62
2021/03/22 10:08:00;;;;;;;7.40;2.67;;;6.00;76.70;;;;;;4957842;28;20053;-61
2021/03/22 10:10:36;;;;;;;5.82;3.33;;;6.00;76.80;;;;;;4963180;28;20066;-59
2021/03/22 10:13:28;;;;;;;5.55;2.42;;;6.00;77.00;;;;;;4965385;28;20051;-61
2021/03/22 10:16:00;;;;;;;8.65;3.00;;;6.00;75.30;;;;;;4975568;28;20184;-62
2021/03/22 10:18:41;;;;;;;7.75;3.15;;;6.00;74.70;;;;;;5028722;28;20095;-61
2021/03/22 10:21:12;;;;;;;8.82;3.17;;;6.00;74.90;;;;;;5066125;28;20056;-61
2021/03/22 10:23:49;;;;;;;7.50;3.13;;;6.00;75.40;;;;;;5034099;28;20048;-61
2021/03/22 10:26:39;;;;;;;7.15;2.63;;;6.00;75.00;;;;;;5058736;28;20044;-62
2021/03/22 10:29:34;;;;;;;5.85;2.00;;;6.00;75.30;;;;;;5044264;28;20503;-61
2021/03/22 10:32:19;;;;;;;5.45;1.67;;;6.00;74.40;;;;;;5039711;28;20533;-58
2021/03/22 10:34:54;;;;;;;7.50;1.55;;;6.10;74.50;;;;;;5043510;28;20814;-59
2021/03/22 10:37:34;;;;;;;;;;;6.10;73.80;;;;;;5067368;28;20040;-60
2021/03/22 10:40:22;;;;;;;5.40;1.67;;;6.10;73.30;;;;;;5066899;28;19929;-59
2021/03/22 10:42:52;;;;;;;6.30;1.80;;;6.10;73.00;;;;;;5028708;28;20044;-60
2021/03/22 10:45:24;;;;;;;10.47;2.47;;;6.10;73.20;;;;;;5047843;28;20491;-61
2021/03/22 10:47:51;;;;;;;4.55;1.42;;;6.20;73.80;;;;;;5049230;28;20294;-59
2021/03/22 10:50:23;;;;;;;4.53;1.40;;;6.20;71.80;;;;;;5045309;28;20384;-60
2021/03/22 10:53:11;;;;;;;4.50;1.50;;;6.20;71.40;;;;;;5067121;28;20041;-60
2021/03/22 10:55:47;;;;;;;4.18;1.30;;;6.20;71.80;;;;;;5060060;28;20057;-60
2021/03/22 10:58:37;;;;;;;5.28;2.00;;;6.20;70.30;;;;;;5061476;28;20041;-59
2021/03/22 11:01:07;;;;;;;6.05;1.95;;;6.20;70.30;;;;;;5054666;28;20064;-59
2021/03/22 11:03:36;;;;;;;4.60;1.85;;;6.30;71.40;;;;;;5046532;28;20045;-59
2021/03/22 11:06:12;;;;;;;6.40;1.88;;;6.30;69.10;;;;;;5061228;28;20127;-59
2021/03/22 11:08:42;;;;;;;5.13;2.15;;;6.30;67.00;;;;;;5065685;28;20526;-61
2021/03/22 11:11:13;;;;;;;2.80;1.50;;;6.30;66.80;;;;;;5066090;28;20487;-61
2021/03/22 11:13:45;;;;;;;5.20;2.38;;;6.40;66.50;;;;;;5058474;28;20041;-58
2021/03/22 11:16:27;;;;;;;5.53;1.98;;;6.40;65.80;;;;;;5064389;28;20036;-59
2021/03/22 11:18:55;;;;;;;6.75;2.60;;;6.40;66.20;;;;;;5046369;28;20044;-59
2021/03/22 11:21:25;;;;;;;6.28;2.47;;;6.50;66.60;;;;;;5062288;28;20114;-59
2021/03/22 11:23:56;;;;;;;7.32;2.38;;;6.60;67.20;;;;;;5064935;28;20144;-58
2021/03/22 11:26:28;;;;;;;7.20;2.65;;;6.60;65.40;;;;;;5063227;28;20725;-58
2021/03/22 11:29:17;;;;;;;5.40;1.80;;;6.70;65.30;;;;;;5058195;28;20072;-59
2021/03/22 11:31:47;;;;;;;3.00;1.30;;;6.70;64.00;;;;;;5068347;28;20040;-60
2021/03/22 11:34:16;;;;;;;3.30;1.58;;;6.70;63.70;;;;;;5046244;28;20062;-59
2021/03/22 11:36:45;;;;;;;5.65;2.08;;;6.70;63.60;;;;;;5043562;28;20047;-59
2021/03/22 11:39:18;;;;;;;3.33;1.30;;;6.60;63.80;;;;;;5046619;28;20062;-59
2021/03/22 11:42:03;;;;;;;5.82;1.90;;;6.70;64.00;;;;;;5066516;28;20128;-59
2021/03/22 11:44:30;;;;;;;4.05;1.58;;;6.70;63.90;;;;;;5047710;28;20056;-58
2021/03/22 11:47:26;;;;;;;5.65;2.08;;;6.70;63.70;;;;;;5064623;28;20044;-58
2021/03/22 11:49:55;;;;;;;5.28;1.42;;;6.70;64.60;;;;;;5052941;28;20126;-59
2021/03/22 11:52:29;;;;;;;4.32;2.05;;;6.70;64.20;;;;;;5066402;28;20161;-58
2021/03/22 11:55:07;;;;;;;5.07;1.75;;;6.70;63.50;;;;;;5065729;28;20041;-60
2021/03/22 11:57:37;;;;;;;6.13;2.15;;;6.70;63.00;;;;;;5064302;28;20040;-62
2021/03/22 12:00:26;;;;;;;5.20;2.45;;;6.70;61.90;;;;;;5068752;28;20380;-60
2021/03/22 12:02:57;;;;;;;7.43;2.10;;;6.80;62.40;;;;;;5065952;28;20472;-59
2021/03/22 12:05:29;;;;;;;6.05;1.95;;;6.80;60.40;;;;;;5066310;28;20043;-62
2021/03/22 12:07:57;;;;;;;6.53;1.58;;;6.90;59.30;;;;;;5065094;28;20052;-59
2021/03/22 12:10:38;;;;;;;4.45;1.23;;;6.90;59.40;;;;;;5051315;28;20041;-58
2021/03/22 12:13:08;;;;;;;2.92;1.30;;;7.00;59.50;;;;;;5034126;28;20147;-60
2021/03/22 12:15:34;;;;;;;3.30;1.15;;;7.00;59.00;;;;;;5068702;28;20052;-59
2021/03/22 12:18:07;;;;;;;3.97;1.63;;;7.00;58.60;;;;;;5063897;28;20431;-59
2021/03/22 12:20:35;;;;;;;4.15;1.33;;;7.00;59.20;;;;;;5066544;28;20115;-60
2021/03/22 12:23:02;;;;;;;5.28;1.67;;;7.00;59.40;;;;;;5054782;28;20056;-58
2021/03/22 12:25:31;;;;;;;8.10;3.22;;;7.10;60.10;;;;;;5053534;28;20507;-58
2021/03/22 12:27:58;;;;;;;6.10;2.50;;;7.20;59.90;;;;;;5064503;28;20139;-62
2021/03/22 12:30:27;;;;;;;5.43;1.70;;;7.30;60.20;;;;;;5068232;28;20040;-59
2021/03/22 12:32:54;;;;;;;4.70;1.52;;;7.30;58.30;;;;;;5051975;28;20567;-59
2021/03/22 12:35:35;;;;;;;5.57;1.90;;;7.40;57.90;;;;;;5031272;28;20453;-61
2021/03/22 12:38:04;;;;;;;5.90;1.70;;;7.40;58.10;;;;;;5047677;28;20110;-59
2021/03/22 12:40:31;;;;;;;4.47;1.50;;;7.40;57.30;;;;;;5070686;28;20055;-60
2021/03/22 12:43:00;;;;;;;5.28;1.45;;;7.50;57.40;;;;;;5058220;28;20487;-59
2021/03/22 12:45:33;;;;;;;4.50;1.88;;;7.60;56.30;;;;;;5068117;28;20056;-59
2021/03/22 12:48:00;;;;;;;;;;;7.70;57.30;;;;;;5067930;28;20051;-60
2021/03/22 12:50:37;;;;;;;4.43;0.98;;;7.80;55.40;;;;;;5071096;28;20820;-60
2021/03/22 12:53:04;;;;;;;4.03;1.05;;;7.90;53.60;;;;;;5067407;28;20036;-59
2021/03/22 12:55:32;;;;;;;4.97;1.40;;;7.90;53.10;;;;;;5059074;28;20132;-66
2021/03/22 12:58:02;;;;;;;3.13;1.45;;;8.00;52.10;;;;;;5029982;28;20046;-62
2021/03/22 13:00:30;;;;;;;5.97;1.27;;;8.10;52.70;;;;;;5078334;28;20082;-59
2021/03/22 13:02:59;;;;;;;3.83;1.42;;;8.10;52.70;;;;;;5050625;28;20063;-59
2021/03/22 13:05:29;;;;;;;6.40;1.70;;;8.20;52.40;;;;;;5067707;28;20052;-62
2021/03/22 13:07:58;;;;;;;6.53;2.10;;;8.30;53.00;;;;;;5047119;28;20052;-58
2021/03/22 13:10:27;;;;;;;3.15;1.30;;;8.30;52.40;;;;;;5069056;28;20055;-62
2021/03/22 13:12:54;;;;;;;6.88;2.05;;;8.40;52.90;;;;;;5045563;28;20044;-59
2021/03/22 13:15:43;;;;;;;5.35;1.63;;;8.50;52.80;;;;;;5043078;28;20064;-59
2021/03/22 13:18:22;;;;;;;5.07;1.92;;;8.50;52.50;;;;;;5063527;28;20843;-60
2021/03/22 13:20:56;;;;;;;4.57;1.67;;;8.50;53.00;;;;;;5067166;28;20115;-59
2021/03/22 13:23:24;;;;;;;3.42;1.20;;;8.60;53.00;;;;;;5072376;28;20914;-59
2021/03/22 13:25:51;;;;;;;4.35;1.30;;;8.70;51.80;;;;;;5070244;28;20047;-64
2021/03/22 13:28:28;;;;;;;5.38;1.90;;;8.70;51.60;;;;;;5064282;28;20051;-63
2021/03/22 13:30:56;;;;;;;5.20;2.15;;;8.70;51.60;;;;;;5063691;28;20115;-60